Time,TemperatureF,DewpointF,PressureIn,WindDirection,WindDirectionDegrees,WindSpeedMPH,WindSpeedGustMPH,Humidity,HourlyPrecipIn,Conditions,Clouds,dailyrainin,SoftwareType,DateUTC
2013-01-18 00:02:00,34.8,33.5,30.30,NW,321,0.0,0.0,95,0.00,,---,0.00,VWS V14.01,2013-01-18 06:02:00,
2013-01-18 00:07:00,34.8,33.8,30.30,NW,321,0.0,0.0,96,0.00,,---,0.00,VWS V14.01,2013-01-18 06:07:00,
2013-01-18 00:12:00,34.9,33.9,30.30,NW,321,0.0,0.0,96,0.00,,---,0.00,VWS V14.01,2013-01-18 06:12:00,
2013-01-18 00:17:00,35.0,34.0,30.30,NW,321,0.0,0.0,96,0.00,,---,0.00,VWS V14.01,2013-01-18 06:17:00,
2013-01-18 00:22:00,35.3,34.3,30.31,NW,315,0.0,1.0,96,0.00,,---,0.00,VWS V14.01,2013-01-18 06:22:00,
2013-01-18 00:27:00,35.6,34.8,30.31,North,349,0.0,1.0,97,0.00,,---,0.00,VWS V14.01,2013-01-18 06:27:00,
2013-01-18 00:32:00,35.9,34.9,30.31,NW,311,0.0,1.0,96,0.00,,---,0.00,VWS V14.01,2013-01-18 06:32:00,
2013-01-18 00:37:00,35.9,34.9,30.31,NE,38,0.0,0.0,96,0.00,,---,0.00,VWS V14.01,2013-01-18 06:37:00,
2013-01-18 00:42:00,35.9,34.9,30.31,NE,39,0.0,0.0,96,0.00,,---,0.00,VWS V14.01,2013-01-18 06:42:00,
2013-01-18 00:47:00,36.0,35.0,30.32,NE,39,0.0,0.0,96,0.00,,---,0.00,VWS V14.01,2013-01-18 06:47:00,
2013-01-18 00:52:00,36.0,35.0,30.32,North,356,0.0,0.0,96,0.00,,---,0.00,VWS V14.01,2013-01-18 06:52:00,
2013-01-18 00:57:00,36.2,35.2,30.32,NW,314,0.0,0.0,96,0.00,,---,0.00,VWS V14.01,2013-01-18 06:57:00,
2013-01-18 01:02:00,36.4,35.4,30.32,WNW,293,0.0,1.0,96,0.00,,---,0.00,VWS V14.01,2013-01-18 07:02:00,
2013-01-18 01:07:00,36.5,35.5,30.32,NW,311,0.0,0.0,96,0.00,,---,0.00,VWS V14.01,2013-01-18 07:07:00,
2013-01-18 01:12:00,36.6,35.6,30.33,ESE,105,0.0,1.0,96,0.00,,---,0.00,VWS V14.01,2013-01-18 07:12:00,
2013-01-18 01:17:00,36.8,35.8,30.33,North,355,0.0,1.0,96,0.00,,---,0.00,VWS V14.01,2013-01-18 07:17:00,
2013-01-18 01:22:00,36.8,35.8,30.33,NE,36,0.0,1.0,96,0.00,,---,0.00,VWS V14.01,2013-01-18 07:22:00,
2013-01-18 01:27:00,36.7,35.7,30.33,NE,36,0.0,1.0,96,0.00,,---,0.00,VWS V14.01,2013-01-18 07:27:00,
2013-01-18 01:32:00,36.5,35.5,30.33,NNE,20,0.0,1.0,96,0.00,,---,0.00,VWS V14.01,2013-01-18 07:32:00,
2013-01-18 01:37:00,36.6,35.6,30.33,WNW,297,0.0,0.0,96,0.00,,---,0.00,VWS V14.01,2013-01-18 07:37:00,
2013-01-18 01:42:00,36.4,35.4,30.33,WNW,289,0.0,1.0,96,0.00,,---,0.00,VWS V14.01,2013-01-18 07:42:00,
2013-01-18 01:47:00,36.4,35.4,30.33,West,276,0.0,1.0,96,0.00,,---,0.00,VWS V14.01,2013-01-18 07:47:00,
2013-01-18 01:52:00,36.4,35.4,30.33,West,277,0.0,1.0,96,0.00,,---,0.00,VWS V14.01,2013-01-18 07:52:00,
2013-01-18 01:57:00,36.4,35.4,30.33,West,276,0.0,1.0,96,0.00,,---,0.00,VWS V14.01,2013-01-18 07:57:00,
2013-01-18 02:02:00,36.4,35.4,30.33,West,270,0.0,1.0,96,0.00,,---,0.00,VWS V14.01,2013-01-18 08:02:00,
2013-01-18 02:07:00,36.3,35.3,30.33,West,270,0.0,0.0,96,0.00,,---,0.00,VWS V14.01,2013-01-18 08:07:00,
2013-01-18 02:12:00,36.4,35.4,30.33,NNW,333,0.0,1.0,96,0.00,,---,0.00,VWS V14.01,2013-01-18 08:12:00,
2013-01-18 02:17:00,36.6,35.6,30.33,WSW,253,0.0,2.0,96,0.00,,---,0.00,VWS V14.01,2013-01-18 08:17:00,
2013-01-18 02:21:00,36.7,35.7,30.33,NNW,346,0.0,2.0,96,0.00,,---,0.00,VWS V14.01,2013-01-18 08:21:00,
2013-01-18 02:26:00,36.7,35.7,30.33,East,98,0.0,2.0,96,0.00,,---,0.00,VWS V14.01,2013-01-18 08:26:00,
2013-01-18 02:31:00,36.7,35.7,30.33,NW,321,0.0,2.0,96,0.00,,---,0.00,VWS V14.01,2013-01-18 08:31:00,
2013-01-18 02:36:00,36.8,35.8,30.33,West,274,0.0,1.0,96,0.00,,---,0.00,VWS V14.01,2013-01-18 08:36:00,
2013-01-18 02:41:00,36.8,35.8,30.33,West,270,0.0,1.0,96,0.00,,---,0.00,VWS V14.01,2013-01-18 08:41:00,
2013-01-18 02:46:00,36.8,35.5,30.33,West,274,0.0,2.0,95,0.00,,---,0.00,VWS V14.01,2013-01-18 08:46:00,
2013-01-18 02:51:00,36.8,35.5,30.33,NE,46,0.0,2.0,95,0.00,,---,0.00,VWS V14.01,2013-01-18 08:51:00,
2013-01-18 02:56:00,36.9,35.6,30.33,North,6,0.0,2.0,95,0.00,,---,0.00,VWS V14.01,2013-01-18 08:56:00,
2013-01-18 03:01:00,36.9,35.6,30.33,WNW,285,0.0,2.0,95,0.00,,---,0.00,VWS V14.01,2013-01-18 09:01:00,
2013-01-18 03:06:00,36.9,35.6,30.34,ENE,69,0.0,1.0,95,0.00,,---,0.00,VWS V14.01,2013-01-18 09:06:00,
2013-01-18 03:11:00,36.8,35.5,30.34,NNW,336,0.0,2.0,95,0.00,,---,0.00,VWS V14.01,2013-01-18 09:11:00,
2013-01-18 03:16:00,36.8,35.5,30.34,WNW,288,0.0,2.0,95,0.00,,---,0.00,VWS V14.01,2013-01-18 09:16:00,
2013-01-18 03:21:00,36.8,35.5,30.34,NNW,332,0.0,2.0,95,0.00,,---,0.00,VWS V14.01,2013-01-18 09:21:00,
2013-01-18 03:26:00,36.8,35.5,30.34,NNW,329,0.0,2.0,95,0.00,,---,0.00,VWS V14.01,2013-01-18 09:26:00,
2013-01-18 03:31:00,36.9,35.6,30.35,NW,325,0.0,2.0,95,0.00,,---,0.00,VWS V14.01,2013-01-18 09:31:00,
2013-01-18 03:36:00,36.9,35.6,30.35,WNW,285,0.0,1.0,95,0.00,,---,0.00,VWS V14.01,2013-01-18 09:36:00,
2013-01-18 03:41:00,36.8,35.5,30.35,NW,315,0.0,1.0,95,0.00,,---,0.00,VWS V14.01,2013-01-18 09:41:00,
2013-01-18 03:46:00,36.8,35.5,30.34,NW,309,0.0,2.0,95,0.00,,---,0.00,VWS V14.01,2013-01-18 09:46:00,
2013-01-18 03:51:00,36.8,35.5,30.34,West,271,1.0,2.0,95,0.00,,---,0.00,VWS V14.01,2013-01-18 09:51:00,
2013-01-18 03:56:00,36.7,35.4,30.34,WNW,291,0.0,2.0,95,0.00,,---,0.00,VWS V14.01,2013-01-18 09:56:00,
2013-01-18 04:01:00,36.6,35.3,30.34,South,187,0.0,2.0,95,0.00,,---,0.00,VWS V14.01,2013-01-18 10:01:00,
2013-01-18 04:06:00,36.5,35.2,30.35,West,280,0.0,2.0,95,0.00,,---,0.00,VWS V14.01,2013-01-18 10:06:00,
2013-01-18 04:11:00,36.5,35.5,30.35,East,101,0.0,2.0,96,0.00,,---,0.00,VWS V14.01,2013-01-18 10:11:00,
2013-01-18 04:16:00,36.6,35.6,30.35,WNW,297,0.0,2.0,96,0.00,,---,0.00,VWS V14.01,2013-01-18 10:16:00,
2013-01-18 04:21:00,36.5,35.5,30.34,NW,309,0.0,2.0,96,0.00,,---,0.00,VWS V14.01,2013-01-18 10:21:00,
2013-01-18 04:26:00,36.6,35.6,30.35,East,89,1.0,3.0,96,0.00,,---,0.00,VWS V14.01,2013-01-18 10:26:00,
2013-01-18 04:31:00,36.6,35.6,30.34,WNW,282,0.0,3.0,96,0.00,,---,0.00,VWS V14.01,2013-01-18 10:31:00,
2013-01-18 04:36:00,36.5,35.5,30.34,NW,321,0.0,0.0,96,0.00,,---,0.00,VWS V14.01,2013-01-18 10:36:00,
2013-01-18 04:41:00,36.4,35.4,30.34,East,89,0.0,2.0,96,0.00,,---,0.00,VWS V14.01,2013-01-18 10:41:00,
2013-01-18 04:46:00,36.4,35.4,30.35,NNW,342,0.0,2.0,96,0.00,,---,0.00,VWS V14.01,2013-01-18 10:46:00,
2013-01-18 04:51:00,36.2,35.2,30.35,WSW,254,0.0,2.0,96,0.00,,---,0.00,VWS V14.01,2013-01-18 10:51:00,
2013-01-18 04:56:00,36.1,35.1,30.36,NNW,333,0.0,2.0,96,0.00,,---,0.00,VWS V14.01,2013-01-18 10:56:00,
2013-01-18 05:01:00,36.1,35.1,30.36,NW,321,0.0,2.0,96,0.00,,---,0.00,VWS V14.01,2013-01-18 11:01:00,
2013-01-18 05:06:00,36.0,35.0,30.36,WNW,288,0.0,0.0,96,0.00,,---,0.00,VWS V14.01,2013-01-18 11:06:00,
2013-01-18 05:11:00,35.9,34.9,30.36,NNE,15,0.0,0.0,96,0.00,,---,0.00,VWS V14.01,2013-01-18 11:11:00,
2013-01-18 05:16:00,35.7,34.7,30.36,NW,324,0.0,1.0,96,0.00,,---,0.00,VWS V14.01,2013-01-18 11:16:00,
2013-01-18 05:21:00,35.7,34.7,30.36,NNW,345,0.0,2.0,96,0.00,,---,0.00,VWS V14.01,2013-01-18 11:21:00,
2013-01-18 05:26:00,35.6,34.6,30.36,West,264,0.0,2.0,96,0.00,,---,0.00,VWS V14.01,2013-01-18 11:26:00,
2013-01-18 05:31:00,35.5,34.5,30.37,NNW,330,0.0,2.0,96,0.00,,---,0.00,VWS V14.01,2013-01-18 11:31:00,
2013-01-18 05:36:00,35.5,34.5,30.36,ENE,61,0.0,1.0,96,0.00,,---,0.00,VWS V14.01,2013-01-18 11:36:00,
2013-01-18 05:41:00,35.6,34.6,30.37,NE,36,0.0,1.0,96,0.00,,---,0.00,VWS V14.01,2013-01-18 11:41:00,
2013-01-18 05:46:00,35.6,34.8,30.37,ENE,64,0.0,1.0,97,0.00,,---,0.00,VWS V14.01,2013-01-18 11:46:00,
2013-01-18 05:51:00,35.6,34.8,30.38,NNW,338,0.0,1.0,97,0.00,,---,0.00,VWS V14.01,2013-01-18 11:51:00,
2013-01-18 05:56:00,35.5,34.5,30.38,NNW,338,0.0,1.0,96,0.00,,---,0.00,VWS V14.01,2013-01-18 11:56:00,
2013-01-18 06:01:00,35.5,34.7,30.38,West,269,0.0,1.0,97,0.00,,---,0.00,VWS V14.01,2013-01-18 12:01:00,
2013-01-18 06:06:00,35.5,34.7,30.39,NNW,345,0.0,1.0,97,0.00,,---,0.00,VWS V14.01,2013-01-18 12:06:00,
2013-01-18 06:11:00,35.4,34.6,30.39,NNW,347,0.0,2.0,97,0.00,,---,0.00,VWS V14.01,2013-01-18 12:11:00,
2013-01-18 06:16:00,35.4,34.6,30.39,NE,50,0.0,2.0,97,0.00,,---,0.00,VWS V14.01,2013-01-18 12:16:00,
2013-01-18 06:21:00,35.2,34.4,30.39,North,350,0.0,2.0,97,0.00,,---,0.00,VWS V14.01,2013-01-18 12:21:00,
2013-01-18 06:26:00,35.1,34.3,30.39,SW,225,0.0,2.0,97,0.00,,---,0.00,VWS V14.01,2013-01-18 12:26:00,
2013-01-18 06:31:00,35.0,34.2,30.39,SW,225,0.0,2.0,97,0.00,,---,0.00,VWS V14.01,2013-01-18 12:31:00,
2013-01-18 06:36:00,34.9,34.1,30.39,North,11,0.0,0.0,97,0.00,,---,0.00,VWS V14.01,2013-01-18 12:36:00,
2013-01-18 06:41:00,34.9,34.1,30.39,ESE,118,0.0,0.0,97,0.00,,---,0.00,VWS V14.01,2013-01-18 12:41:00,
2013-01-18 06:46:00,34.9,34.1,30.39,ENE,65,0.0,1.0,97,0.00,,---,0.00,VWS V14.01,2013-01-18 12:46:00,
2013-01-18 06:51:00,34.9,34.1,30.39,North,352,0.0,1.0,97,0.00,,---,0.00,VWS V14.01,2013-01-18 12:51:00,
2013-01-18 06:56:00,34.9,34.1,30.40,NW,323,0.0,1.0,97,0.00,,---,0.00,VWS V14.01,2013-01-18 12:56:00,
2013-01-18 07:01:00,34.9,34.1,30.40,NE,34,0.0,2.0,97,0.00,,---,0.00,VWS V14.01,2013-01-18 13:01:00,
2013-01-18 07:06:00,34.9,34.1,30.40,West,278,0.0,0.0,97,0.00,,---,0.00,VWS V14.01,2013-01-18 13:06:00,
2013-01-18 07:11:00,34.8,34.0,30.40,West,278,0.0,1.0,97,0.00,,---,0.00,VWS V14.01,2013-01-18 13:11:00,
2013-01-18 07:16:00,34.9,34.1,30.40,NW,316,0.0,1.0,97,0.00,,---,0.00,VWS V14.01,2013-01-18 13:16:00,
2013-01-18 07:21:00,34.9,34.1,30.40,NW,315,0.0,1.0,97,0.00,,---,0.00,VWS V14.01,2013-01-18 13:21:00,
2013-01-18 07:26:00,35.0,34.2,30.41,WNW,285,0.0,1.0,97,0.00,,---,0.00,VWS V14.01,2013-01-18 13:26:00,
2013-01-18 07:31:00,35.1,34.3,30.41,NE,56,0.0,1.0,97,0.00,,---,0.00,VWS V14.01,2013-01-18 13:31:00,
2013-01-18 07:36:00,35.3,34.5,30.42,NE,38,0.0,2.0,97,0.00,,---,0.00,VWS V14.01,2013-01-18 13:36:00,
2013-01-18 07:41:00,35.5,34.7,30.42,NNW,344,0.0,2.0,97,0.00,,---,0.00,VWS V14.01,2013-01-18 13:41:00,
2013-01-18 07:46:00,35.8,35.0,30.42,NW,311,0.0,2.0,97,0.00,,---,0.00,VWS V14.01,2013-01-18 13:46:00,
2013-01-18 07:51:00,36.0,35.2,30.42,WNW,293,0.0,3.0,97,0.00,,---,0.00,VWS V14.01,2013-01-18 13:51:00,
2013-01-18 07:56:00,36.3,35.5,30.42,WNW,302,0.0,3.0,97,0.00,,---,0.00,VWS V14.01,2013-01-18 13:56:00,
2013-01-18 08:01:00,36.6,35.8,30.42,WNW,283,0.0,3.0,97,0.00,,---,0.00,VWS V14.01,2013-01-18 14:01:00,
2013-01-18 08:06:00,36.9,36.1,30.42,NNE,22,0.0,1.0,97,0.00,,---,0.00,VWS V14.01,2013-01-18 14:06:00,
2013-01-18 08:11:00,37.2,36.4,30.42,ENE,64,0.0,4.0,97,0.00,,---,0.00,VWS V14.01,2013-01-18 14:11:00,
2013-01-18 08:16:00,37.7,36.9,30.42,North,352,1.0,4.0,97,0.00,,---,0.00,VWS V14.01,2013-01-18 14:16:00,
2013-01-18 08:21:00,38.3,37.3,30.42,SSW,199,0.0,4.0,96,0.00,,---,0.00,VWS V14.01,2013-01-18 14:21:00,
2013-01-18 08:26:00,38.9,37.9,30.42,SW,228,0.0,4.0,96,0.00,,---,0.00,VWS V14.01,2013-01-18 14:26:00,
2013-01-18 08:31:00,39.3,38.0,30.43,West,262,0.0,4.0,95,0.00,,---,0.00,VWS V14.01,2013-01-18 14:31:00,
2013-01-18 08:36:00,39.7,38.1,30.43,WSW,243,0.0,1.0,94,0.00,,---,0.00,VWS V14.01,2013-01-18 14:36:00,
2013-01-18 08:41:00,40.2,38.3,30.43,WNW,285,1.0,3.0,93,0.00,,---,0.00,VWS V14.01,2013-01-18 14:41:00,
2013-01-18 08:46:00,40.7,38.6,30.43,West,276,1.0,3.0,92,0.00,,---,0.00,VWS V14.01,2013-01-18 14:46:00,
2013-01-18 08:51:00,41.2,38.8,30.44,ESE,120,0.0,4.0,91,0.00,,---,0.00,VWS V14.01,2013-01-18 14:51:00,
2013-01-18 08:56:00,41.6,38.9,30.43,West,280,1.0,4.0,90,0.00,,---,0.00,VWS V14.01,2013-01-18 14:56:00,
2013-01-18 09:01:00,41.9,38.9,30.43,WSW,258,0.0,4.0,89,0.00,,---,0.00,VWS V14.01,2013-01-18 15:01:00,
2013-01-18 09:06:00,42.4,39.4,30.44,ENE,72,0.0,2.0,89,0.00,,---,0.00,VWS V14.01,2013-01-18 15:06:00,
2013-01-18 09:11:00,42.7,38.8,30.44,SW,233,0.0,3.0,86,0.00,,---,0.00,VWS V14.01,2013-01-18 15:11:00,
2013-01-18 09:16:00,43.0,38.8,30.44,SW,215,0.0,3.0,85,0.00,,---,0.00,VWS V14.01,2013-01-18 15:16:00,
2013-01-18 09:21:00,43.3,38.8,30.44,ENE,64,0.0,4.0,84,0.00,,---,0.00,VWS V14.01,2013-01-18 15:21:00,
2013-01-18 09:25:00,43.8,39.3,30.44,West,266,0.0,4.0,84,0.00,,---,0.00,VWS V14.01,2013-01-18 15:25:00,
2013-01-18 09:30:00,44.2,39.1,30.44,WNW,301,1.0,4.0,82,0.00,,---,0.00,VWS V14.01,2013-01-18 15:30:00,
2013-01-18 09:35:00,44.6,39.1,30.44,NNE,19,0.0,3.0,81,0.00,,---,0.00,VWS V14.01,2013-01-18 15:35:00,
2013-01-18 09:40:00,45.1,39.6,30.44,ENE,75,0.0,3.0,81,0.00,,---,0.00,VWS V14.01,2013-01-18 15:40:00,
2013-01-18 09:45:00,45.5,39.7,30.44,South,169,0.0,3.0,80,0.00,,---,0.00,VWS V14.01,2013-01-18 15:45:00,
2013-01-18 09:50:00,46.1,39.6,30.44,East,88,0.0,6.0,78,0.00,,---,0.00,VWS V14.01,2013-01-18 15:50:00,
2013-01-18 09:55:00,46.6,40.1,30.44,NW,311,1.0,6.0,78,0.00,,---,0.00,VWS V14.01,2013-01-18 15:55:00,
2013-01-18 10:00:00,46.9,40.1,30.44,SSW,204,0.0,6.0,77,0.00,,---,0.00,VWS V14.01,2013-01-18 16:00:00,
2013-01-18 10:05:00,47.5,40.0,30.44,West,276,1.0,5.0,75,0.00,,---,0.00,VWS V14.01,2013-01-18 16:05:00,
2013-01-18 10:10:00,47.8,40.6,30.44,East,97,0.0,5.0,76,0.00,,---,0.00,VWS V14.01,2013-01-18 16:10:00,
2013-01-18 10:15:00,48.2,39.6,30.43,SW,231,0.0,5.0,72,0.00,,---,0.00,VWS V14.01,2013-01-18 16:15:00,
2013-01-18 10:20:00,48.7,41.1,30.43,NW,312,2.0,5.0,75,0.00,,---,0.00,VWS V14.01,2013-01-18 16:20:00,
2013-01-18 10:25:00,49.1,40.5,30.43,East,92,0.0,5.0,72,0.00,,---,0.00,VWS V14.01,2013-01-18 16:25:00,
2013-01-18 10:30:00,49.7,41.4,30.43,WSW,239,0.0,5.0,73,0.00,,---,0.00,VWS V14.01,2013-01-18 16:30:00,
2013-01-18 10:35:00,50.1,41.1,30.42,NW,316,0.0,1.0,71,0.00,,---,0.00,VWS V14.01,2013-01-18 16:35:00,
2013-01-18 10:40:00,50.3,40.9,30.42,ESE,123,0.0,3.0,70,0.00,,---,0.00,VWS V14.01,2013-01-18 16:40:00,
2013-01-18 10:45:00,50.6,41.2,30.42,ESE,105,0.0,3.0,70,0.00,,---,0.00,VWS V14.01,2013-01-18 16:45:00,
2013-01-18 10:50:00,51.0,41.2,30.42,WNW,284,0.0,3.0,69,0.00,,---,0.00,VWS V14.01,2013-01-18 16:50:00,
2013-01-18 10:55:00,51.6,41.8,30.42,West,280,3.0,4.0,69,0.00,,---,0.00,VWS V14.01,2013-01-18 16:55:00,
2013-01-18 11:00:00,51.6,41.8,30.42,West,274,0.0,4.0,69,0.00,,---,0.00,VWS V14.01,2013-01-18 17:00:00,
2013-01-18 11:05:00,52.0,41.8,30.41,ENE,75,1.0,5.0,68,0.00,,---,0.00,VWS V14.01,2013-01-18 17:05:00,
2013-01-18 11:10:00,52.6,42.0,30.41,SW,228,1.0,5.0,67,0.00,,---,0.00,VWS V14.01,2013-01-18 17:10:00,
2013-01-18 11:15:00,53.1,42.1,30.41,WSW,243,0.0,5.0,66,0.00,,---,0.00,VWS V14.01,2013-01-18 17:15:00,
2013-01-18 11:20:00,53.5,42.4,30.41,SW,231,1.0,5.0,66,0.00,,---,0.00,VWS V14.01,2013-01-18 17:20:00,
2013-01-18 11:25:00,53.9,42.0,30.40,SSE,159,0.0,5.0,64,0.00,,---,0.00,VWS V14.01,2013-01-18 17:25:00,
2013-01-18 11:30:00,54.3,42.8,30.40,WSW,243,0.0,5.0,65,0.00,,---,0.00,VWS V14.01,2013-01-18 17:30:00,
2013-01-18 11:35:00,55.0,42.2,30.40,SE,143,0.0,2.0,62,0.00,,---,0.00,VWS V14.01,2013-01-18 17:35:00,
2013-01-18 11:40:00,55.1,42.8,30.39,North,356,0.0,2.0,63,0.00,,---,0.00,VWS V14.01,2013-01-18 17:40:00,
2013-01-18 11:45:00,55.6,42.4,30.39,SSW,204,0.0,2.0,61,0.00,,---,0.00,VWS V14.01,2013-01-18 17:45:00,
2013-01-18 11:50:00,55.5,42.7,30.39,WNW,288,1.0,2.0,62,0.00,,---,0.00,VWS V14.01,2013-01-18 17:50:00,
2013-01-18 11:55:00,56.1,43.3,30.39,East,85,0.0,2.0,62,0.00,,---,0.00,VWS V14.01,2013-01-18 17:55:00,
2013-01-18 12:00:00,56.5,43.2,30.38,East,86,1.0,3.0,61,0.00,,---,0.00,VWS V14.01,2013-01-18 18:00:00,
2013-01-18 12:05:00,56.8,43.1,30.38,East,97,1.0,2.0,60,0.00,,---,0.00,VWS V14.01,2013-01-18 18:05:00,
2013-01-18 12:10:00,57.3,43.1,30.37,South,179,0.0,2.0,59,0.00,,---,0.00,VWS V14.01,2013-01-18 18:10:00,
2013-01-18 12:15:00,57.6,43.4,30.37,ENE,76,0.0,3.0,59,0.00,,---,0.00,VWS V14.01,2013-01-18 18:15:00,
2013-01-18 12:20:00,58.5,44.2,30.36,SSE,150,0.0,3.0,59,0.00,,---,0.00,VWS V14.01,2013-01-18 18:20:00,
2013-01-18 12:25:00,58.8,43.6,30.36,West,277,1.0,3.0,57,0.00,,---,0.00,VWS V14.01,2013-01-18 18:25:00,
2013-01-18 12:30:00,58.5,43.3,30.36,SE,138,0.0,3.0,57,0.00,,---,0.00,VWS V14.01,2013-01-18 18:30:00,
2013-01-18 12:35:00,58.8,43.2,30.35,SE,124,2.0,2.0,56,0.00,,---,0.00,VWS V14.01,2013-01-18 18:35:00,
2013-01-18 12:40:00,59.1,43.9,30.35,West,280,0.0,4.0,57,0.00,,---,0.00,VWS V14.01,2013-01-18 18:40:00,
2013-01-18 12:45:00,59.5,43.8,30.35,NNE,24,1.0,4.0,56,0.00,,---,0.00,VWS V14.01,2013-01-18 18:45:00,
2013-01-18 12:50:00,59.5,43.8,30.34,West,270,0.0,4.0,56,0.00,,---,0.00,VWS V14.01,2013-01-18 18:50:00,
2013-01-18 12:55:00,59.8,43.6,30.34,ENE,63,0.0,6.0,55,0.00,,---,0.00,VWS V14.01,2013-01-18 18:55:00,
2013-01-18 13:00:00,60.2,44.5,30.34,SW,235,0.0,6.0,56,0.00,,---,0.00,VWS V14.01,2013-01-18 19:00:00,
2013-01-18 13:05:00,60.3,43.6,30.34,East,85,0.0,2.0,54,0.00,,---,0.00,VWS V14.01,2013-01-18 19:05:00,
2013-01-18 13:10:00,60.0,43.3,30.34,East,97,2.0,3.0,54,0.00,,---,0.00,VWS V14.01,2013-01-18 19:10:00,
2013-01-18 13:15:00,60.1,43.4,30.34,WNW,300,1.0,3.0,54,0.00,,---,0.00,VWS V14.01,2013-01-18 19:15:00,
2013-01-18 13:20:00,60.4,43.7,30.33,West,273,0.0,3.0,54,0.00,,---,0.00,VWS V14.01,2013-01-18 19:20:00,
2013-01-18 13:25:00,60.5,43.8,30.33,NW,309,0.0,3.0,54,0.00,,---,0.00,VWS V14.01,2013-01-18 19:25:00,
2013-01-18 13:30:00,60.9,44.6,30.33,ESE,120,0.0,3.0,55,0.00,,---,0.00,VWS V14.01,2013-01-18 19:30:00,
2013-01-18 13:35:00,60.9,44.2,30.33,SSE,155,1.0,2.0,54,0.00,,---,0.00,VWS V14.01,2013-01-18 19:35:00,
2013-01-18 13:40:00,60.7,43.5,30.33,SSW,195,0.0,3.0,53,0.00,,---,0.00,VWS V14.01,2013-01-18 19:40:00,
2013-01-18 13:45:00,60.7,43.0,30.32,SW,228,1.0,3.0,52,0.00,,---,0.00,VWS V14.01,2013-01-18 19:45:00,
2013-01-18 13:50:00,61.1,43.9,30.32,SW,225,1.0,3.0,53,0.00,,---,0.00,VWS V14.01,2013-01-18 19:50:00,
2013-01-18 13:55:00,61.1,41.3,30.32,WSW,255,0.0,3.0,48,0.00,,---,0.00,VWS V14.01,2013-01-18 19:55:00,
2013-01-18 14:00:00,60.8,42.6,30.32,WNW,288,2.0,3.0,51,0.00,,---,0.00,VWS V14.01,2013-01-18 20:00:00,
2013-01-18 14:05:00,61.1,42.8,30.32,WNW,285,2.0,3.0,51,0.00,,---,0.00,VWS V14.01,2013-01-18 20:05:00,
2013-01-18 14:10:00,60.7,42.0,30.32,NW,318,1.0,3.0,50,0.00,,---,0.00,VWS V14.01,2013-01-18 20:10:00,
2013-01-18 14:15:00,60.5,41.8,30.32,West,260,1.0,3.0,50,0.00,,---,0.00,VWS V14.01,2013-01-18 20:15:00,
2013-01-18 14:20:00,60.6,42.4,30.32,ENE,66,0.0,4.0,51,0.00,,---,0.00,VWS V14.01,2013-01-18 20:20:00,
2013-01-18 14:25:00,60.8,42.1,30.31,SE,131,0.0,4.0,50,0.00,,---,0.00,VWS V14.01,2013-01-18 20:25:00,
2013-01-18 14:30:00,60.9,41.1,30.31,SE,134,0.0,4.0,48,0.00,,---,0.00,VWS V14.01,2013-01-18 20:30:00,
2013-01-18 14:35:00,61.0,42.2,30.31,WSW,240,0.0,2.0,50,0.00,,---,0.00,VWS V14.01,2013-01-18 20:35:00,
2013-01-18 14:40:00,60.9,40.0,30.31,West,278,0.0,2.0,46,0.00,,---,0.00,VWS V14.01,2013-01-18 20:40:00,
2013-01-18 14:45:00,60.7,41.5,30.32,West,269,0.0,2.0,49,0.00,,---,0.00,VWS V14.01,2013-01-18 20:45:00,
2013-01-18 14:50:00,60.6,41.4,30.31,West,273,0.0,2.0,49,0.00,,---,0.00,VWS V14.01,2013-01-18 20:50:00,
2013-01-18 14:55:00,60.5,42.8,30.31,West,273,0.0,2.0,52,0.00,,---,0.00,VWS V14.01,2013-01-18 20:55:00,
2013-01-18 15:00:00,60.3,42.1,30.31,West,268,1.0,2.0,51,0.00,,---,0.00,VWS V14.01,2013-01-18 21:00:00,
2013-01-18 15:05:00,60.0,40.3,30.31,ESE,113,0.0,1.0,48,0.00,,---,0.00,VWS V14.01,2013-01-18 21:05:00,
2013-01-18 15:10:00,59.6,41.0,30.31,WSW,253,0.0,2.0,50,0.00,,---,0.00,VWS V14.01,2013-01-18 21:10:00,
2013-01-18 15:15:00,59.4,41.8,30.31,NNW,342,1.0,2.0,52,0.00,,---,0.00,VWS V14.01,2013-01-18 21:15:00,
2013-01-18 15:20:00,59.1,41.5,30.31,WNW,299,0.0,2.0,52,0.00,,---,0.00,VWS V14.01,2013-01-18 21:20:00,
2013-01-18 15:25:00,58.8,41.7,30.31,NE,43,0.0,2.0,53,0.00,,---,0.00,VWS V14.01,2013-01-18 21:25:00,
2013-01-18 15:30:00,58.5,41.5,30.31,SSE,162,0.0,2.0,53,0.00,,---,0.00,VWS V14.01,2013-01-18 21:30:00,
2013-01-18 15:35:00,58.2,40.7,30.31,SSE,162,0.0,0.0,52,0.00,,---,0.00,VWS V14.01,2013-01-18 21:35:00,
2013-01-18 15:40:00,58.1,42.0,30.31,WSW,246,0.0,1.0,55,0.00,,---,0.00,VWS V14.01,2013-01-18 21:40:00,
2013-01-18 15:45:00,57.8,41.8,30.31,WNW,302,0.0,2.0,55,0.00,,---,0.00,VWS V14.01,2013-01-18 21:45:00,
2013-01-18 15:50:00,57.5,41.9,30.31,WSW,252,0.0,2.0,56,0.00,,---,0.00,VWS V14.01,2013-01-18 21:50:00,
2013-01-18 15:55:00,57.2,42.1,30.31,West,280,0.0,2.0,57,0.00,,---,0.00,VWS V14.01,2013-01-18 21:55:00,
2013-01-18 16:00:00,56.8,42.6,30.31,West,280,0.0,2.0,59,0.00,,---,0.00,VWS V14.01,2013-01-18 22:00:00,
2013-01-18 16:05:00,56.7,42.1,30.31,West,280,0.0,0.0,58,0.00,,---,0.00,VWS V14.01,2013-01-18 22:05:00,
2013-01-18 16:10:00,56.7,43.0,30.31,WNW,301,0.0,0.0,60,0.00,,---,0.00,VWS V14.01,2013-01-18 22:10:00,
2013-01-18 16:15:00,56.4,42.3,30.31,WNW,302,0.0,0.0,59,0.00,,---,0.00,VWS V14.01,2013-01-18 22:15:00,
2013-01-18 16:20:00,56.0,42.8,30.31,NW,304,0.0,0.0,61,0.00,,---,0.00,VWS V14.01,2013-01-18 22:20:00,
2013-01-18 16:25:00,55.7,42.0,30.31,WNW,297,0.0,1.0,60,0.00,,---,0.00,VWS V14.01,2013-01-18 22:25:00,
2013-01-18 16:30:00,55.4,43.0,30.31,WNW,297,0.0,1.0,63,0.00,,---,0.00,VWS V14.01,2013-01-18 22:30:00,
2013-01-18 16:35:00,55.1,43.2,30.31,WNW,297,0.0,0.0,64,0.00,,---,0.00,VWS V14.01,2013-01-18 22:35:00,
2013-01-18 16:40:00,54.6,42.7,30.31,WNW,297,0.0,0.0,64,0.00,,---,0.00,VWS V14.01,2013-01-18 22:40:00,
2013-01-18 16:45:00,54.2,43.9,30.31,WNW,297,0.0,0.0,68,0.00,,---,0.00,VWS V14.01,2013-01-18 22:45:00,
2013-01-18 16:50:00,53.6,43.7,30.31,WNW,296,0.0,0.0,69,0.00,,---,0.00,VWS V14.01,2013-01-18 22:50:00,
2013-01-18 16:55:00,53.0,43.9,30.31,WNW,297,0.0,0.0,71,0.00,,---,0.00,VWS V14.01,2013-01-18 22:55:00,
2013-01-18 17:00:00,52.3,43.5,30.31,WNW,297,0.0,0.0,72,0.00,,---,0.00,VWS V14.01,2013-01-18 23:00:00,
2013-01-18 17:05:00,51.6,43.2,30.31,WNW,297,0.0,0.0,73,0.00,,---,0.00,VWS V14.01,2013-01-18 23:05:00,
2013-01-18 17:10:00,51.1,43.5,30.32,WNW,297,0.0,0.0,75,0.00,,---,0.00,VWS V14.01,2013-01-18 23:10:00,
2013-01-18 17:15:00,50.5,43.2,30.32,WNW,297,0.0,0.0,76,0.00,,---,0.00,VWS V14.01,2013-01-18 23:15:00,
2013-01-18 17:20:00,50.0,43.4,30.32,WNW,297,0.0,0.0,78,0.00,,---,0.00,VWS V14.01,2013-01-18 23:20:00,
2013-01-18 17:25:00,49.5,43.6,30.32,WNW,297,0.0,0.0,80,0.00,,---,0.00,VWS V14.01,2013-01-18 23:25:00,
2013-01-18 17:30:00,48.9,43.3,30.32,WNW,296,0.0,0.0,81,0.00,,---,0.00,VWS V14.01,2013-01-18 23:30:00,
2013-01-18 17:35:00,48.2,42.7,30.32,WNW,297,0.0,0.0,81,0.00,,---,0.00,VWS V14.01,2013-01-18 23:35:00,
2013-01-18 17:40:00,47.6,42.4,30.33,WNW,297,0.0,0.0,82,0.00,,---,0.00,VWS V14.01,2013-01-18 23:40:00,
2013-01-18 17:45:00,47.0,42.1,30.33,WNW,297,0.0,0.0,83,0.00,,---,0.00,VWS V14.01,2013-01-18 23:45:00,
2013-01-18 17:50:00,46.5,41.9,30.33,WNW,297,0.0,0.0,84,0.00,,---,0.00,VWS V14.01,2013-01-18 23:50:00,
2013-01-18 17:55:00,46.0,42.0,30.33,WNW,297,0.0,0.0,86,0.00,,---,0.00,VWS V14.01,2013-01-18 23:55:00,
2013-01-18 18:00:00,45.5,41.6,30.33,WNW,297,0.0,0.0,86,0.00,,---,0.00,VWS V14.01,2013-01-19 00:00:00,
2013-01-18 18:05:00,45.2,41.6,30.33,WNW,297,0.0,0.0,87,0.00,,---,0.00,VWS V14.01,2013-01-19 00:05:00,
2013-01-18 18:10:00,44.8,41.5,30.33,WNW,297,0.0,0.0,88,0.00,,---,0.00,VWS V14.01,2013-01-19 00:10:00,
2013-01-18 18:15:00,44.4,41.1,30.33,WNW,297,0.0,0.0,88,0.00,,---,0.00,VWS V14.01,2013-01-19 00:15:00,
2013-01-18 18:20:00,44.0,41.0,30.33,WNW,296,0.0,0.0,89,0.00,,---,0.00,VWS V14.01,2013-01-19 00:20:00,
2013-01-18 18:25:00,43.6,40.6,30.33,WNW,297,0.0,0.0,89,0.00,,---,0.00,VWS V14.01,2013-01-19 00:25:00,
2013-01-18 18:30:00,43.3,40.6,30.33,WNW,296,0.0,0.0,90,0.00,,---,0.00,VWS V14.01,2013-01-19 00:30:00,
2013-01-18 18:35:00,43.0,40.6,30.33,WNW,297,0.0,0.0,91,0.00,,---,0.00,VWS V14.01,2013-01-19 00:35:00,
2013-01-18 18:40:00,42.7,40.3,30.33,WNW,297,0.0,0.0,91,0.00,,---,0.00,VWS V14.01,2013-01-19 00:40:00,
2013-01-18 18:45:00,42.4,40.2,30.33,WNW,297,0.0,0.0,92,0.00,,---,0.00,VWS V14.01,2013-01-19 00:45:00,
2013-01-18 18:50:00,42.0,39.8,30.33,WNW,297,0.0,0.0,92,0.00,,---,0.00,VWS V14.01,2013-01-19 00:50:00,
2013-01-18 18:55:00,41.8,39.7,30.33,WNW,297,0.0,0.0,92,0.00,,---,0.00,VWS V14.01,2013-01-19 00:55:00,
2013-01-18 19:00:00,41.5,39.3,30.33,WNW,297,0.0,0.0,92,0.00,,---,0.00,VWS V14.01,2013-01-19 01:00:00,
2013-01-18 19:05:00,41.2,39.3,30.33,WNW,297,0.0,0.0,93,0.00,,---,0.00,VWS V14.01,2013-01-19 01:05:00,
2013-01-18 19:10:00,40.9,39.0,30.33,WNW,297,0.0,0.0,93,0.00,,---,0.00,VWS V14.01,2013-01-19 01:10:00,
2013-01-18 19:15:00,40.6,38.7,30.33,WNW,297,0.0,0.0,93,0.00,,---,0.00,VWS V14.01,2013-01-19 01:15:00,
2013-01-18 19:20:00,40.4,38.5,30.33,WNW,297,0.0,0.0,93,0.00,,---,0.00,VWS V14.01,2013-01-19 01:20:00,
2013-01-18 19:25:00,40.3,38.7,30.33,WNW,296,0.0,0.0,94,0.00,,---,0.00,VWS V14.01,2013-01-19 01:25:00,
2013-01-18 19:30:00,40.1,38.5,30.33,WNW,297,0.0,0.0,94,0.00,,---,0.00,VWS V14.01,2013-01-19 01:30:00,
2013-01-18 19:35:00,39.9,38.3,30.33,WNW,297,0.0,0.0,94,0.00,,---,0.00,VWS V14.01,2013-01-19 01:35:00,
2013-01-18 19:40:00,39.7,38.1,30.33,WNW,297,0.0,0.0,94,0.00,,---,0.00,VWS V14.01,2013-01-19 01:40:00,
2013-01-18 19:45:00,39.6,38.3,30.33,WNW,297,0.0,0.0,95,0.00,,---,0.00,VWS V14.01,2013-01-19 01:45:00,
2013-01-18 19:49:00,39.4,38.1,30.33,WNW,296,0.0,0.0,95,0.00,,---,0.00,VWS V14.01,2013-01-19 01:49:00,
2013-01-18 19:54:00,39.2,37.9,30.33,WNW,297,0.0,0.0,95,0.00,,---,0.00,VWS V14.01,2013-01-19 01:54:00,
2013-01-18 19:59:00,39.0,37.7,30.33,WNW,297,0.0,0.0,95,0.00,,---,0.00,VWS V14.01,2013-01-19 01:59:00,
2013-01-18 20:04:00,38.9,37.6,30.33,WNW,297,0.0,0.0,95,0.00,,---,0.00,VWS V14.01,2013-01-19 02:04:00,
2013-01-18 20:09:00,38.7,37.4,30.33,WNW,297,0.0,0.0,95,0.00,,---,0.00,VWS V14.01,2013-01-19 02:09:00,
2013-01-18 20:14:00,38.4,37.1,30.33,WNW,297,0.0,0.0,95,0.00,,---,0.00,VWS V14.01,2013-01-19 02:14:00,
2013-01-18 20:19:00,38.2,36.9,30.33,WNW,297,0.0,0.0,95,0.00,,---,0.00,VWS V14.01,2013-01-19 02:19:00,
2013-01-18 20:24:00,37.9,36.6,30.33,WNW,297,0.0,0.0,95,0.00,,---,0.00,VWS V14.01,2013-01-19 02:24:00,
2013-01-18 20:29:00,37.7,36.4,30.33,WNW,297,0.0,0.0,95,0.00,,---,0.00,VWS V14.01,2013-01-19 02:29:00,
2013-01-18 20:34:00,37.4,36.1,30.33,WNW,296,0.0,0.0,95,0.00,,---,0.00,VWS V14.01,2013-01-19 02:34:00,
2013-01-18 20:39:00,37.3,36.3,30.33,WNW,297,0.0,0.0,96,0.00,,---,0.00,VWS V14.01,2013-01-19 02:39:00,
2013-01-18 20:44:00,37.3,36.3,30.33,WNW,297,0.0,0.0,96,0.00,,---,0.00,VWS V14.01,2013-01-19 02:44:00,
2013-01-18 20:49:00,37.3,36.3,30.33,WNW,297,0.0,0.0,96,0.00,,---,0.00,VWS V14.01,2013-01-19 02:49:00,
2013-01-18 20:54:00,37.2,36.2,30.33,WNW,297,0.0,0.0,96,0.00,,---,0.00,VWS V14.01,2013-01-19 02:54:00,
2013-01-18 20:59:00,37.0,36.0,30.33,WNW,297,0.0,0.0,96,0.00,,---,0.00,VWS V14.01,2013-01-19 02:59:00,
2013-01-18 21:04:00,36.9,35.9,30.33,WNW,297,0.0,0.0,96,0.00,,---,0.00,VWS V14.01,2013-01-19 03:04:00,
2013-01-18 21:09:00,36.7,35.7,30.33,WNW,297,0.0,0.0,96,0.00,,---,0.00,VWS V14.01,2013-01-19 03:09:00,
2013-01-18 21:14:00,36.6,35.6,30.32,WNW,297,0.0,0.0,96,0.00,,---,0.00,VWS V14.01,2013-01-19 03:14:00,
2013-01-18 21:19:00,36.5,35.5,30.32,WNW,297,0.0,0.0,96,0.00,,---,0.00,VWS V14.01,2013-01-19 03:19:00,
2013-01-18 21:24:00,36.3,35.3,30.32,WNW,297,0.0,0.0,96,0.00,,---,0.00,VWS V14.01,2013-01-19 03:24:00,
2013-01-18 21:29:00,36.1,35.1,30.32,WNW,297,0.0,0.0,96,0.00,,---,0.00,VWS V14.01,2013-01-19 03:29:00,
2013-01-18 21:34:00,35.9,34.9,30.32,WNW,297,0.0,0.0,96,0.00,,---,0.00,VWS V14.01,2013-01-19 03:34:00,
2013-01-18 21:39:00,35.8,34.8,30.32,WNW,297,0.0,0.0,96,0.00,,---,0.00,VWS V14.01,2013-01-19 03:39:00,
2013-01-18 21:44:00,35.7,34.7,30.32,WNW,296,0.0,0.0,96,0.00,,---,0.00,VWS V14.01,2013-01-19 03:44:00,
2013-01-18 21:49:00,35.5,34.5,30.32,WNW,297,0.0,0.0,96,0.00,,---,0.00,VWS V14.01,2013-01-19 03:49:00,
2013-01-18 21:54:00,35.5,34.7,30.32,WNW,297,0.0,0.0,97,0.00,,---,0.00,VWS V14.01,2013-01-19 03:54:00,
2013-01-18 21:59:00,35.3,34.5,30.32,WNW,297,0.0,0.0,97,0.00,,---,0.00,VWS V14.01,2013-01-19 03:59:00,
2013-01-18 22:04:00,35.1,34.3,30.32,WNW,297,0.0,0.0,97,0.00,,---,0.00,VWS V14.01,2013-01-19 04:04:00,
2013-01-18 22:09:00,35.0,34.2,30.32,WNW,297,0.0,0.0,97,0.00,,---,0.00,VWS V14.01,2013-01-19 04:09:00,
2013-01-18 22:14:00,34.9,34.1,30.31,WNW,297,0.0,0.0,97,0.00,,---,0.00,VWS V14.01,2013-01-19 04:14:00,
2013-01-18 22:19:00,34.7,33.9,30.31,WNW,297,0.0,0.0,97,0.00,,---,0.00,VWS V14.01,2013-01-19 04:19:00,
2013-01-18 22:24:00,34.5,33.7,30.31,WNW,296,0.0,0.0,97,0.00,,---,0.00,VWS V14.01,2013-01-19 04:24:00,
2013-01-18 22:29:00,34.5,33.7,30.31,WNW,297,0.0,0.0,97,0.00,,---,0.00,VWS V14.01,2013-01-19 04:29:00,
2013-01-18 22:34:00,34.5,33.7,30.31,WNW,297,0.0,0.0,97,0.00,,---,0.00,VWS V14.01,2013-01-19 04:34:00,
2013-01-18 22:39:00,34.3,33.5,30.31,WNW,297,0.0,0.0,97,0.00,,---,0.00,VWS V14.01,2013-01-19 04:39:00,
2013-01-18 22:44:00,34.2,33.4,30.31,WNW,296,0.0,0.0,97,0.00,,---,0.00,VWS V14.01,2013-01-19 04:44:00,
2013-01-18 22:49:00,34.2,33.4,30.31,WNW,297,0.0,0.0,97,0.00,,---,0.00,VWS V14.01,2013-01-19 04:49:00,
2013-01-18 22:54:00,34.1,33.3,30.31,WNW,297,0.0,0.0,97,0.00,,---,0.00,VWS V14.01,2013-01-19 04:54:00,
2013-01-18 22:59:00,33.9,33.1,30.31,WNW,297,0.0,0.0,97,0.00,,---,0.00,VWS V14.01,2013-01-19 04:59:00,
2013-01-18 23:00:00,33.9,33.1,30.31,WNW,296,0.0,0.0,97,0.00,,---,0.00,VWS V14.01,2013-01-19 05:00:00,
2013-01-18 23:01:00,33.9,33.1,30.31,WNW,297,0.0,0.0,97,0.00,,---,0.00,VWS V14.01,2013-01-19 05:01:00,
2013-01-18 23:02:00,33.9,33.1,30.31,WNW,297,0.0,0.0,97,0.00,,---,0.00,VWS V14.01,2013-01-19 05:02:00,
2013-01-18 23:07:00,33.8,33.0,30.31,WNW,297,0.0,0.0,97,0.00,,---,0.00,VWS V14.01,2013-01-19 05:07:00,
2013-01-18 23:12:00,33.7,32.9,30.31,WNW,297,0.0,0.0,97,0.00,,---,0.00,VWS V14.01,2013-01-19 05:12:00,
2013-01-18 23:17:00,33.6,32.8,30.31,WNW,297,0.0,0.0,97,0.00,,---,0.00,VWS V14.01,2013-01-19 05:17:00,
2013-01-18 23:22:00,33.5,32.7,30.31,WNW,297,0.0,0.0,97,0.00,,---,0.00,VWS V14.01,2013-01-19 05:22:00,
2013-01-18 23:27:00,33.4,32.6,30.31,WNW,296,0.0,0.0,97,0.00,,---,0.00,VWS V14.01,2013-01-19 05:27:00,
2013-01-18 23:32:00,33.3,32.5,30.31,WNW,297,0.0,0.0,97,0.00,,---,0.00,VWS V14.01,2013-01-19 05:32:00,
2013-01-18 23:37:00,33.2,32.4,30.31,WNW,296,0.0,0.0,97,0.00,,---,0.00,VWS V14.01,2013-01-19 05:37:00,
2013-01-18 23:42:00,33.3,32.5,30.31,WNW,297,0.0,0.0,97,0.00,,---,0.00,VWS V14.01,2013-01-19 05:42:00,
2013-01-18 23:47:00,33.2,32.4,30.30,WNW,297,0.0,0.0,97,0.00,,---,0.00,VWS V14.01,2013-01-19 05:47:00,
2013-01-18 23:52:00,33.2,32.4,30.30,WNW,297,0.0,0.0,97,0.00,,---,0.00,VWS V14.01,2013-01-19 05:52:00,
2013-01-18 23:57:00,33.2,32.4,30.30,WNW,297,0.0,0.0,97,0.00,,---,0.00,VWS V14.01,2013-01-19 05:57:00,